sensor_id;sensor_type;location;lat;lon;timestamp;noise_LAeq;noise_LA_min;noise_LA_max;noise_LA01;noise_LA95
45109;Laerm;30447;48.742;8.972;2023-01-10T00:00:40;38.50;35.04;41.38;;
45109;Laerm;30447;48.742;8.972;2023-01-10T00:03:09;41.17;35.66;48.66;;
45109;Laerm;30447;48.742;8.972;2023-01-10T00:05:39;38.93;35.04;42.09;;
45109;Laerm;30447;48.742;8.972;2023-01-10T00:08:07;39.60;34.69;44.11;;
45109;Laerm;30447;48.742;8.972;2023-01-10T00:10:34;39.54;35.66;43.54;;
45109;Laerm;30447;48.742;8.972;2023-01-10T00:13:01;38.43;34.31;41.46;;
45109;Laerm;30447;48.742;8.972;2023-01-10T00:15:47;38.07;34.31;40.71;;
45109;Laerm;30447;48.742;8.972;2023-01-10T00:18:14;38.57;33.90;44.23;;
45109;Laerm;30447;48.742;8.972;2023-01-10T00:20:41;38.95;34.69;50.74;;
45109;Laerm;30447;48.742;8.972;2023-01-10T00:23:11;38.84;35.04;43.99;;
45109;Laerm;30447;48.742;8.972;2023-01-10T00:25:38;39.18;35.04;44.97;;
45109;Laerm;30447;48.742;8.972;2023-01-10T00:28:06;39.09;35.04;43.72;;
45109;Laerm;30447;48.742;8.972;2023-01-10T00:30:37;40.56;36.45;49.91;;
45109;Laerm;30447;48.742;8.972;2023-01-10T00:33:07;41.56;36.91;45.63;;
45109;Laerm;30447;48.742;8.972;2023-01-10T00:35:34;39.86;35.04;44.62;;
45109;Laerm;30447;48.742;8.972;2023-01-10T00:38:01;39.96;35.66;48.03;;
45109;Laerm;30447;48.742;8.972;2023-01-10T00:40:32;39.75;35.66;43.29;;
45109;Laerm;30447;48.742;8.972;2023-01-10T00:43:00;38.88;34.69;46.57;;
45109;Laerm;30447;48.742;8.972;2023-01-10T00:45:46;39.01;34.69;45.42;;
45109;Laerm;30447;48.742;8.972;2023-01-10T00:48:14;39.22;34.31;45.51;;
45109;Laerm;30447;48.742;8.972;2023-01-10T00:50:42;39.16;35.94;43.77;;
45109;Laerm;30447;48.742;8.972;2023-01-10T00:53:09;41.71;35.36;60.42;;
45109;Laerm;30447;48.742;8.972;2023-01-10T00:55:36;39.89;35.59;47.24;;
45109;Laerm;30447;48.742;8.972;2023-01-10T00:58:03;39.50;35.66;44.35;;
45109;Laerm;30447;48.742;8.972;2023-01-10T01:00:29;39.11;35.04;44.35;;
45109;Laerm;30447;48.742;8.972;2023-01-10T01:02:56;38.79;34.34;50.91;;
45109;Laerm;30447;48.742;8.972;2023-01-10T01:05:23;38.51;33.44;41.61;;
45109;Laerm;30447;48.742;8.972;2023-01-10T01:07:51;38.82;35.04;42.98;;
45109;Laerm;30447;48.742;8.972;2023-01-10T01:10:18;38.81;34.31;43.86;;
45109;Laerm;30447;48.742;8.972;2023-01-10T01:12:58;38.55;33.90;43.63;;
45109;Laerm;30447;48.742;8.972;2023-01-10T01:15:26;38.22;34.31;42.88;;
45109;Laerm;30447;48.742;8.972;2023-01-10T01:17:54;38.18;34.31;43.34;;
45109;Laerm;30447;48.742;8.972;2023-01-10T01:20:20;38.16;33.90;40.80;;
45109;Laerm;30447;48.742;8.972;2023-01-10T01:22:47;38.57;35.04;55.22;;
45109;Laerm;30447;48.742;8.972;2023-01-10T01:25:14;38.63;34.69;40.89;;
45109;Laerm;30447;48.742;8.972;2023-01-10T01:27:41;38.76;34.69;43.94;;
45109;Laerm;30447;48.742;8.972;2023-01-10T01:30:10;40.28;35.36;47.02;;
45109;Laerm;30447;48.742;8.972;2023-01-10T01:32:37;39.38;35.36;45.75;;
45109;Laerm;30447;48.742;8.972;2023-01-10T01:35:07;41.23;36.20;51.73;;
45109;Laerm;30447;48.742;8.972;2023-01-10T01:37:34;38.81;35.04;43.63;;
45109;Laerm;30447;48.742;8.972;2023-01-10T01:40:01;38.84;35.01;43.09;;
45109;Laerm;30447;48.742;8.972;2023-01-10T01:42:33;39.59;35.36;43.72;;
45109;Laerm;30447;48.742;8.972;2023-01-10T01:48:05;39.53;35.66;45.66;;
45109;Laerm;30447;48.742;8.972;2023-01-10T01:54:03;40.30;36.91;44.07;;
45109;Laerm;30447;48.742;8.972;2023-01-10T01:56:44;39.69;35.36;44.35;;
45109;Laerm;30447;48.742;8.972;2023-01-10T01:59:22;38.94;35.36;44.07;;
45109;Laerm;30447;48.742;8.972;2023-01-10T02:02:02;39.30;35.36;42.71;;
45109;Laerm;30447;48.742;8.972;2023-01-10T02:04:45;40.35;35.66;46.73;;
45109;Laerm;30447;48.742;8.972;2023-01-10T02:07:14;41.09;37.70;46.93;;
45109;Laerm;30447;48.742;8.972;2023-01-10T02:09:55;41.47;37.32;47.18;;
45109;Laerm;30447;48.742;8.972;2023-01-10T02:12:27;40.62;37.32;47.48;;
45109;Laerm;30447;48.742;8.972;2023-01-10T02:14:57;40.68;37.52;53.55;;
45109;Laerm;30447;48.742;8.972;2023-01-10T02:17:25;41.97;38.37;50.07;;
45109;Laerm;30447;48.742;8.972;2023-01-10T02:22:32;39.79;37.12;54.58;;
45109;Laerm;30447;48.742;8.972;2023-01-10T02:31:16;42.86;38.95;58.96;;
45109;Laerm;30447;48.742;8.972;2023-01-10T02:34:07;42.57;36.91;60.22;;
45109;Laerm;30447;48.742;8.972;2023-01-10T02:36:49;40.58;37.70;49.34;;
45109;Laerm;30447;48.742;8.972;2023-01-10T02:42:42;40.50;36.45;54.18;;
45109;Laerm;30447;48.742;8.972;2023-01-10T02:45:25;40.51;36.20;53.50;;
45109;Laerm;30447;48.742;8.972;2023-01-10T02:47:56;40.21;36.20;47.79;;
45109;Laerm;30447;48.742;8.972;2023-01-10T02:53:20;39.65;36.45;42.47;;
45109;Laerm;30447;48.742;8.972;2023-01-10T02:56:35;40.01;36.20;43.49;;
45109;Laerm;30447;48.742;8.972;2023-01-10T02:59:37;39.87;36.20;44.90;;
45109;Laerm;30447;48.742;8.972;2023-01-10T03:02:36;40.41;36.91;48.25;;
45109;Laerm;30447;48.742;8.972;2023-01-10T03:05:41;40.02;35.94;52.49;;
45109;Laerm;30447;48.742;8.972;2023-01-10T03:11:07;40.67;37.32;43.94;;
45109;Laerm;30447;48.742;8.972;2023-01-10T03:13:54;42.94;37.32;55.46;;
45109;Laerm;30447;48.742;8.972;2023-01-10T03:16:28;40.49;36.69;45.36;;
45109;Laerm;30447;48.742;8.972;2023-01-10T03:19:16;40.79;36.69;45.69;;
45109;Laerm;30447;48.742;8.972;2023-01-10T03:21:50;40.21;35.94;44.03;;
45109;Laerm;30447;48.742;8.972;2023-01-10T03:24:34;40.11;36.69;44.58;;
45109;Laerm;30447;48.742;8.972;2023-01-10T03:27:29;40.89;37.32;52.59;;
45109;Laerm;30447;48.742;8.972;2023-01-10T03:33:03;40.20;37.32;43.39;;
45109;Laerm;30447;48.742;8.972;2023-01-10T03:35:53;41.05;37.88;53.51;;
45109;Laerm;30447;48.742;8.972;2023-01-10T03:41:37;41.31;37.88;48.12;;
45109;Laerm;30447;48.742;8.972;2023-01-10T03:44:19;40.83;37.32;46.93;;
45109;Laerm;30447;48.742;8.972;2023-01-10T03:47:22;41.12;37.88;44.87;;
45109;Laerm;30447;48.742;8.972;2023-01-10T03:50:01;40.67;37.32;44.65;;
45109;Laerm;30447;48.742;8.972;2023-01-10T03:52:33;41.13;37.87;43.58;;
45109;Laerm;30447;48.742;8.972;2023-01-10T03:55:01;41.25;37.88;52.39;;
45109;Laerm;30447;48.742;8.972;2023-01-10T03:57:28;41.37;38.21;52.67;;
45109;Laerm;30447;48.742;8.972;2023-01-10T03:59:57;40.64;37.32;43.39;;
45109;Laerm;30447;48.742;8.972;2023-01-10T04:02:28;41.15;38.05;45.42;;
45109;Laerm;30447;48.742;8.972;2023-01-10T04:04:56;41.23;37.88;46.35;;
45109;Laerm;30447;48.742;8.972;2023-01-10T04:07:25;41.61;38.95;44.59;;
45109;Laerm;30447;48.742;8.972;2023-01-10T04:09:52;41.89;38.52;45.23;;
45109;Laerm;30447;48.742;8.972;2023-01-10T04:12:19;41.41;38.52;45.60;;
45109;Laerm;30447;48.742;8.972;2023-01-10T04:14:46;41.89;38.81;44.15;;
45109;Laerm;30447;48.742;8.972;2023-01-10T04:17:15;41.80;39.21;45.66;;
45109;Laerm;30447;48.742;8.972;2023-01-10T04:19:43;41.74;39.34;44.35;;
45109;Laerm;30447;48.742;8.972;2023-01-10T04:22:11;42.02;39.34;47.44;;
45109;Laerm;30447;48.742;8.972;2023-01-10T04:24:38;42.68;40.03;48.94;;
45109;Laerm;30447;48.742;8.972;2023-01-10T04:27:06;42.72;40.43;45.59;;
45109;Laerm;30447;48.742;8.972;2023-01-10T04:29:32;42.53;39.81;45.57;;
45109;Laerm;30447;48.742;8.972;2023-01-10T04:31:59;42.59;39.92;45.48;;
45109;Laerm;30447;48.742;8.972;2023-01-10T04:34:26;41.75;38.81;48.28;;
45109;Laerm;30447;48.742;8.972;2023-01-10T04:36:53;42.14;39.58;44.73;;
45109;Laerm;30447;48.742;8.972;2023-01-10T04:39:19;41.85;38.67;45.14;;
45109;Laerm;30447;48.742;8.972;2023-01-10T04:41:46;41.92;39.08;44.27;;
45109;Laerm;30447;48.742;8.972;2023-01-10T04:44:12;41.92;39.21;45.20;;
45109;Laerm;30447;48.742;8.972;2023-01-10T04:46:39;42.58;39.58;47.70;;
45109;Laerm;30447;48.742;8.972;2023-01-10T04:49:05;42.17;39.08;49.89;;
45109;Laerm;30447;48.742;8.972;2023-01-10T04:51:32;41.99;39.34;44.03;;
45109;Laerm;30447;48.742;8.972;2023-01-10T04:53:59;41.93;39.08;45.80;;
45109;Laerm;30447;48.742;8.972;2023-01-10T04:56:26;41.68;38.81;45.27;;
45109;Laerm;30447;48.742;8.972;2023-01-10T04:58:52;41.53;38.37;44.58;;
45109;Laerm;30447;48.742;8.972;2023-01-10T05:01:24;41.59;38.67;45.17;;
45109;Laerm;30447;48.742;8.972;2023-01-10T05:03:54;42.70;39.08;55.98;;
45109;Laerm;30447;48.742;8.972;2023-01-10T05:06:23;42.19;39.21;44.51;;
45109;Laerm;30447;48.742;8.972;2023-01-10T05:08:50;42.10;39.70;44.51;;
45109;Laerm;30447;48.742;8.972;2023-01-10T05:11:17;42.61;39.58;46.52;;
45109;Laerm;30447;48.742;8.972;2023-01-10T05:13:44;41.87;39.58;44.47;;
45109;Laerm;30447;48.742;8.972;2023-01-10T05:16:10;42.37;39.58;44.97;;
45109;Laerm;30447;48.742;8.972;2023-01-10T05:18:37;42.61;40.13;45.99;;
45109;Laerm;30447;48.742;8.972;2023-01-10T05:21:10;43.12;40.62;49.16;;
45109;Laerm;30447;48.742;8.972;2023-01-10T05:23:39;42.28;40.13;44.58;;
45109;Laerm;30447;48.742;8.972;2023-01-10T05:28:37;42.52;39.08;45.17;;
45109;Laerm;30447;48.742;8.972;2023-01-10T05:31:07;41.64;39.21;43.58;;
45109;Laerm;30447;48.742;8.972;2023-01-10T05:33:35;42.29;39.58;44.62;;
45109;Laerm;30447;48.742;8.972;2023-01-10T05:36:03;42.23;39.58;44.27;;
45109;Laerm;30447;48.742;8.972;2023-01-10T05:38:32;42.53;40.62;44.51;;
45109;Laerm;30447;48.742;8.972;2023-01-10T05:41:00;43.09;40.43;57.44;;
45109;Laerm;30447;48.742;8.972;2023-01-10T05:43:27;43.38;40.43;55.40;;
45109;Laerm;30447;48.742;8.972;2023-01-10T05:45:54;42.93;40.80;45.51;;
45109;Laerm;30447;48.742;8.972;2023-01-10T05:48:21;43.12;40.98;52.11;;
45109;Laerm;30447;48.742;8.972;2023-01-10T05:50:49;43.14;41.30;45.83;;
45109;Laerm;30447;48.742;8.972;2023-01-10T05:53:17;43.51;41.06;49.69;;
45109;Laerm;30447;48.742;8.972;2023-01-10T05:55:59;43.99;41.89;55.12;;
45109;Laerm;30447;48.742;8.972;2023-01-10T05:58:28;43.75;41.53;55.46;;
45109;Laerm;30447;48.742;8.972;2023-01-10T06:00:56;43.45;41.14;47.83;;
45109;Laerm;30447;48.742;8.972;2023-01-10T06:03:24;43.64;41.30;56.21;;
45109;Laerm;30447;48.742;8.972;2023-01-10T06:05:55;43.34;40.89;55.67;;
45109;Laerm;30447;48.742;8.972;2023-01-10T06:08:23;43.42;41.38;49.36;;
45109;Laerm;30447;48.742;8.972;2023-01-10T06:10:50;43.39;40.98;50.21;;
45109;Laerm;30447;48.742;8.972;2023-01-10T06:13:17;43.33;41.14;53.83;;
45109;Laerm;30447;48.742;8.972;2023-01-10T06:15:44;44.03;41.30;51.96;;
45109;Laerm;30447;48.742;8.972;2023-01-10T06:18:11;44.01;40.80;53.23;;
45109;Laerm;30447;48.742;8.972;2023-01-10T06:20:38;43.23;40.98;56.78;;
45109;Laerm;30447;48.742;8.972;2023-01-10T06:23:05;42.89;40.13;45.39;;
45109;Laerm;30447;48.742;8.972;2023-01-10T06:25:35;42.90;40.62;44.69;;
45109;Laerm;30447;48.742;8.972;2023-01-10T06:28:03;43.49;40.71;49.57;;
45109;Laerm;30447;48.742;8.972;2023-01-10T06:30:29;43.37;41.26;49.70;;
45109;Laerm;30447;48.742;8.972;2023-01-10T06:33:05;43.48;41.14;49.52;;
45109;Laerm;30447;48.742;8.972;2023-01-10T06:35:33;43.47;40.53;49.44;;
45109;Laerm;30447;48.742;8.972;2023-01-10T06:38:00;43.01;40.98;48.18;;
45109;Laerm;30447;48.742;8.972;2023-01-10T06:40:28;43.08;40.89;48.99;;
45109;Laerm;30447;48.742;8.972;2023-01-10T06:42:54;43.06;40.98;49.47;;
45109;Laerm;30447;48.742;8.972;2023-01-10T06:45:21;43.67;41.30;49.67;;
45109;Laerm;30447;48.742;8.972;2023-01-10T06:47:47;42.91;40.62;47.20;;
45109;Laerm;30447;48.742;8.972;2023-01-10T06:50:14;42.92;40.80;47.00;;
45109;Laerm;30447;48.742;8.972;2023-01-10T06:52:41;43.32;41.22;49.02;;
45109;Laerm;30447;48.742;8.972;2023-01-10T06:55:08;43.45;40.71;53.47;;
45109;Laerm;30447;48.742;8.972;2023-01-10T06:57:35;43.03;40.89;48.69;;
45109;Laerm;30447;48.742;8.972;2023-01-10T07:00:06;43.07;40.62;52.07;;
45109;Laerm;30447;48.742;8.972;2023-01-10T07:02:33;43.03;40.53;50.23;;
45109;Laerm;30447;48.742;8.972;2023-01-10T07:04:59;43.09;40.23;49.40;;
45109;Laerm;30447;48.742;8.972;2023-01-10T07:07:26;42.70;39.34;51.26;;
45109;Laerm;30447;48.742;8.972;2023-01-10T07:09:53;42.84;40.13;46.78;;
45109;Laerm;30447;48.742;8.972;2023-01-10T07:12:19;43.09;40.62;48.54;;
45109;Laerm;30447;48.742;8.972;2023-01-10T07:14:46;43.21;41.06;46.43;;
45109;Laerm;30447;48.742;8.972;2023-01-10T07:17:13;43.42;40.89;48.97;;
45109;Laerm;30447;48.742;8.972;2023-01-10T07:19:39;44.47;41.46;55.12;;
45109;Laerm;30447;48.742;8.972;2023-01-10T07:22:06;43.79;41.22;50.44;;
45109;Laerm;30447;48.742;8.972;2023-01-10T07:24:32;43.31;41.06;47.38;;
45109;Laerm;30447;48.742;8.972;2023-01-10T07:26:59;43.24;40.53;50.08;;
45109;Laerm;30447;48.742;8.972;2023-01-10T07:29:26;43.22;40.71;52.21;;
45109;Laerm;30447;48.742;8.972;2023-01-10T07:31:52;43.08;39.81;54.45;;
45109;Laerm;30447;48.742;8.972;2023-01-10T07:34:19;42.09;39.34;47.14;;
45109;Laerm;30447;48.742;8.972;2023-01-10T07:36:46;42.23;39.08;50.49;;
45109;Laerm;30447;48.742;8.972;2023-01-10T07:39:12;42.47;39.21;45.94;;
45109;Laerm;30447;48.742;8.972;2023-01-10T07:41:39;42.40;39.46;54.99;;
45109;Laerm;30447;48.742;8.972;2023-01-10T07:44:05;42.56;40.13;45.39;;
45109;Laerm;30447;48.742;8.972;2023-01-10T07:46:32;42.66;40.13;45.97;;
45109;Laerm;30447;48.742;8.972;2023-01-10T07:48:59;42.62;40.33;45.17;;
45109;Laerm;30447;48.742;8.972;2023-01-10T07:51:25;42.77;40.71;45.25;;
45109;Laerm;30447;48.742;8.972;2023-01-10T07:53:52;43.07;40.23;52.34;;
45109;Laerm;30447;48.742;8.972;2023-01-10T07:56:18;42.36;39.81;46.48;;
45109;Laerm;30447;48.742;8.972;2023-01-10T07:58:45;42.73;40.53;47.16;;
45109;Laerm;30447;48.742;8.972;2023-01-10T08:01:12;42.90;40.43;51.48;;
45109;Laerm;30447;48.742;8.972;2023-01-10T08:03:38;43.04;40.43;46.40;;
45109;Laerm;30447;48.742;8.972;2023-01-10T08:06:08;43.18;40.23;51.67;;
45109;Laerm;30447;48.742;8.972;2023-01-10T08:08:36;42.25;39.70;55.27;;
45109;Laerm;30447;48.742;8.972;2023-01-10T08:11:04;42.04;39.21;44.31;;
45109;Laerm;30447;48.742;8.972;2023-01-10T08:13:31;42.13;39.58;52.44;;
45109;Laerm;30447;48.742;8.972;2023-01-10T08:16:03;42.08;39.58;44.47;;
45109;Laerm;30447;48.742;8.972;2023-01-10T08:18:31;42.60;39.92;45.48;;
45109;Laerm;30447;48.742;8.972;2023-01-10T08:20:57;42.38;39.92;51.83;;
45109;Laerm;30447;48.742;8.972;2023-01-10T08:23:24;42.16;39.34;45.60;;
45109;Laerm;30447;48.742;8.972;2023-01-10T08:25:51;42.26;39.58;57.51;;
45109;Laerm;30447;48.742;8.972;2023-01-10T08:28:18;42.30;39.81;51.91;;
45109;Laerm;30447;48.742;8.972;2023-01-10T08:30:44;43.04;38.87;59.00;;
45109;Laerm;30447;48.742;8.972;2023-01-10T08:33:11;42.66;37.88;57.25;;
45109;Laerm;30447;48.742;8.972;2023-01-10T08:35:41;41.76;38.67;49.77;;
45109;Laerm;30447;48.742;8.972;2023-01-10T08:38:10;41.46;38.60;50.53;;
45109;Laerm;30447;48.742;8.972;2023-01-10T08:40:37;43.41;38.37;58.83;;
45109;Laerm;30447;48.742;8.972;2023-01-10T08:43:09;41.24;38.21;49.07;;
45109;Laerm;30447;48.742;8.972;2023-01-10T08:45:37;42.25;38.21;67.24;;
45109;Laerm;30447;48.742;8.972;2023-01-10T08:48:05;41.21;38.21;43.63;;
45109;Laerm;30447;48.742;8.972;2023-01-10T08:50:32;41.28;37.88;48.57;;
45109;Laerm;30447;48.742;8.972;2023-01-10T08:53:00;40.13;36.91;44.03;;
45109;Laerm;30447;48.742;8.972;2023-01-10T08:55:28;40.00;36.20;42.76;;
45109;Laerm;30447;48.742;8.972;2023-01-10T08:57:58;39.98;36.69;43.39;;
45109;Laerm;30447;48.742;8.972;2023-01-10T09:00:27;40.16;37.12;45.14;;
45109;Laerm;30447;48.742;8.972;2023-01-10T09:02:54;40.12;36.20;50.35;;
45109;Laerm;30447;48.742;8.972;2023-01-10T09:05:21;40.17;36.91;44.19;;
45109;Laerm;30447;48.742;8.972;2023-01-10T09:07:48;40.87;37.35;53.34;;
45109;Laerm;30447;48.742;8.972;2023-01-10T09:10:15;41.40;37.88;53.08;;
45109;Laerm;30447;48.742;8.972;2023-01-10T09:12:41;41.08;37.12;47.83;;
45109;Laerm;30447;48.742;8.972;2023-01-10T09:15:28;50.71;37.70;66.37;;
45109;Laerm;30447;48.742;8.972;2023-01-10T09:17:58;40.44;36.45;48.04;;
45109;Laerm;30447;48.742;8.972;2023-01-10T09:20:27;40.77;37.35;45.54;;
45109;Laerm;30447;48.742;8.972;2023-01-10T09:22:54;40.10;36.20;42.76;;
45109;Laerm;30447;48.742;8.972;2023-01-10T09:25:23;40.28;37.32;53.13;;
45109;Laerm;30447;48.742;8.972;2023-01-10T09:28:02;41.20;36.69;62.76;;
45109;Laerm;30447;48.742;8.972;2023-01-10T09:30:30;41.77;37.52;55.91;;
45109;Laerm;30447;48.742;8.972;2023-01-10T09:32:57;40.97;37.32;51.87;;
45109;Laerm;30447;48.742;8.972;2023-01-10T09:35:26;40.15;36.91;48.34;;
45109;Laerm;30447;48.742;8.972;2023-01-10T09:37:55;45.37;36.69;69.35;;
45109;Laerm;30447;48.742;8.972;2023-01-10T09:40:54;41.02;36.77;49.92;;
45109;Laerm;30447;48.742;8.972;2023-01-10T09:46:20;40.49;36.91;49.20;;
45109;Laerm;30447;48.742;8.972;2023-01-10T09:51:49;40.41;36.91;47.67;;
45109;Laerm;30447;48.742;8.972;2023-01-10T09:54:35;41.82;36.91;54.30;;
45109;Laerm;30447;48.742;8.972;2023-01-10T09:57:04;44.25;38.52;62.43;;
45109;Laerm;30447;48.742;8.972;2023-01-10T09:59:40;45.81;37.32;65.83;;
45109;Laerm;30447;48.742;8.972;2023-01-10T10:02:33;40.59;37.12;49.80;;
45109;Laerm;30447;48.742;8.972;2023-01-10T10:05:21;40.57;35.04;49.97;;
45109;Laerm;30447;48.742;8.972;2023-01-10T10:07:55;40.99;37.52;51.36;;
45109;Laerm;30447;48.742;8.972;2023-01-10T10:10:36;40.47;37.32;44.31;;
45109;Laerm;30447;48.742;8.972;2023-01-10T10:13:46;40.74;37.32;48.87;;
45109;Laerm;30447;48.742;8.972;2023-01-10T10:19:57;47.28;37.12;59.74;;
45109;Laerm;30447;48.742;8.972;2023-01-10T10:23:10;41.98;38.67;47.38;;
45109;Laerm;30447;48.742;8.972;2023-01-10T10:26:12;42.72;37.32;56.62;;
45109;Laerm;30447;48.742;8.972;2023-01-10T10:34:51;40.53;36.69;45.39;;
45109;Laerm;30447;48.742;8.972;2023-01-10T10:37:32;40.98;37.12;46.45;;
45109;Laerm;30447;48.742;8.972;2023-01-10T10:42:43;40.44;36.91;46.25;;
45109;Laerm;30447;48.742;8.972;2023-01-10T10:48:26;41.03;38.05;52.53;;
45109;Laerm;30447;48.742;8.972;2023-01-10T10:51:20;40.67;36.91;53.35;;
45109;Laerm;30447;48.742;8.972;2023-01-10T10:53:48;40.54;37.52;44.31;;
45109;Laerm;30447;48.742;8.972;2023-01-10T10:56:22;40.87;37.88;47.46;;
45109;Laerm;30447;48.742;8.972;2023-01-10T10:58:54;41.40;38.37;45.54;;
45109;Laerm;30447;48.742;8.972;2023-01-10T11:01:22;41.62;38.67;47.74;;
45109;Laerm;30447;48.742;8.972;2023-01-10T11:03:57;42.39;38.67;51.23;;
45109;Laerm;30447;48.742;8.972;2023-01-10T11:06:28;40.97;35.94;47.70;;
45109;Laerm;30447;48.742;8.972;2023-01-10T11:09:02;39.86;36.20;54.57;;
45109;Laerm;30447;48.742;8.972;2023-01-10T11:11:42;41.39;36.20;65.74;;
45109;Laerm;30447;48.742;8.972;2023-01-10T11:14:12;40.40;36.91;47.74;;
45109;Laerm;30447;48.742;8.972;2023-01-10T11:16:42;42.47;37.12;63.74;;
45109;Laerm;30447;48.742;8.972;2023-01-10T11:19:25;40.80;37.12;48.00;;
45109;Laerm;30447;48.742;8.972;2023-01-10T11:22:05;40.90;37.12;48.03;;
45109;Laerm;30447;48.742;8.972;2023-01-10T11:24:37;40.61;37.32;49.93;;
45109;Laerm;30447;48.742;8.972;2023-01-10T11:27:44;41.10;37.12;50.46;;
45109;Laerm;30447;48.742;8.972;2023-01-10T11:30:25;40.94;36.91;54.75;;
45109;Laerm;30447;48.742;8.972;2023-01-10T11:33:00;41.47;38.05;57.52;;
45109;Laerm;30447;48.742;8.972;2023-01-10T11:35:34;41.72;38.37;54.32;;
45109;Laerm;30447;48.742;8.972;2023-01-10T11:38:21;41.58;38.37;50.78;;
45109;Laerm;30447;48.742;8.972;2023-01-10T11:43:42;41.03;36.69;63.93;;
45109;Laerm;30447;48.742;8.972;2023-01-10T11:46:20;41.24;37.52;48.55;;
45109;Laerm;30447;48.742;8.972;2023-01-10T11:49:10;40.21;37.12;43.94;;
45109;Laerm;30447;48.742;8.972;2023-01-10T11:51:51;40.80;37.52;59.07;;
45109;Laerm;30447;48.742;8.972;2023-01-10T11:54:32;40.34;36.20;44.80;;
45109;Laerm;30447;48.742;8.972;2023-01-10T11:57:20;40.17;35.94;49.51;;
45109;Laerm;30447;48.742;8.972;2023-01-10T12:00:08;40.83;37.32;45.04;;
45109;Laerm;30447;48.742;8.972;2023-01-10T12:02:41;40.72;37.32;45.77;;
45109;Laerm;30447;48.742;8.972;2023-01-10T12:05:18;40.96;36.45;48.42;;
45109;Laerm;30447;48.742;8.972;2023-01-10T12:08:02;40.75;36.91;47.36;;
45109;Laerm;30447;48.742;8.972;2023-01-10T12:10:33;41.42;37.70;47.13;;
45109;Laerm;30447;48.742;8.972;2023-01-10T12:13:15;41.49;38.05;47.20;;
45109;Laerm;30447;48.742;8.972;2023-01-10T12:15:42;41.75;38.67;48.31;;
45109;Laerm;30447;48.742;8.972;2023-01-10T12:18:10;41.55;38.52;48.61;;
45109;Laerm;30447;48.742;8.972;2023-01-10T12:20:50;41.49;37.88;48.16;;
45109;Laerm;30447;48.742;8.972;2023-01-10T12:23:23;40.71;37.32;45.63;;
45109;Laerm;30447;48.742;8.972;2023-01-10T12:25:53;41.70;37.32;57.65;;
45109;Laerm;30447;48.742;8.972;2023-01-10T12:28:28;41.39;38.37;48.39;;
45109;Laerm;30447;48.742;8.972;2023-01-10T12:30:58;41.39;37.70;57.33;;
45109;Laerm;30447;48.742;8.972;2023-01-10T12:33:34;40.99;37.12;48.29;;
45109;Laerm;30447;48.742;8.972;2023-01-10T12:39:12;41.73;38.67;47.52;;
45109;Laerm;30447;48.742;8.972;2023-01-10T12:44:51;41.37;38.05;49.46;;
45109;Laerm;30447;48.742;8.972;2023-01-10T12:50:32;42.18;38.21;51.93;;
45109;Laerm;30447;48.742;8.972;2023-01-10T12:55:55;42.16;38.05;52.78;;
45109;Laerm;30447;48.742;8.972;2023-01-10T13:01:19;40.82;37.88;45.27;;
45109;Laerm;30447;48.742;8.972;2023-01-10T13:04:06;41.87;38.52;48.26;;
45109;Laerm;30447;48.742;8.972;2023-01-10T13:06:40;41.57;38.52;47.81;;
45109;Laerm;30447;48.742;8.972;2023-01-10T13:09:22;41.56;37.12;49.46;;
45109;Laerm;30447;48.742;8.972;2023-01-10T13:14:50;41.09;37.88;51.26;;
45109;Laerm;30447;48.742;8.972;2023-01-10T13:22:55;41.64;37.12;68.68;;
45109;Laerm;30447;48.742;8.972;2023-01-10T13:25:35;41.25;37.12;45.14;;
45109;Laerm;30447;48.742;8.972;2023-01-10T13:30:53;40.31;36.69;45.63;;
45109;Laerm;30447;48.742;8.972;2023-01-10T13:33:29;40.89;37.52;45.89;;
45109;Laerm;30447;48.742;8.972;2023-01-10T13:36:11;41.10;37.52;44.86;;
45109;Laerm;30447;48.742;8.972;2023-01-10T13:38:53;41.55;38.37;51.22;;
45109;Laerm;30447;48.742;8.972;2023-01-10T13:41:22;40.64;37.12;45.30;;
45109;Laerm;30447;48.742;8.972;2023-01-10T13:44:13;40.80;37.12;46.05;;
45109;Laerm;30447;48.742;8.972;2023-01-10T13:46:47;40.46;35.04;52.45;;
45109;Laerm;30447;48.742;8.972;2023-01-10T13:49:40;40.84;36.69;45.48;;
45109;Laerm;30447;48.742;8.972;2023-01-10T13:52:28;40.75;36.20;47.95;;
45109;Laerm;30447;48.742;8.972;2023-01-10T13:55:01;41.24;36.20;48.90;;
45109;Laerm;30447;48.742;8.972;2023-01-10T13:58:03;40.97;36.69;48.52;;
45109;Laerm;30447;48.742;8.972;2023-01-10T14:03:52;40.88;37.52;49.00;;
45109;Laerm;30447;48.742;8.972;2023-01-10T14:08:56;41.23;37.70;47.18;;
45109;Laerm;30447;48.742;8.972;2023-01-10T14:11:47;40.42;36.45;45.20;;
45109;Laerm;30447;48.742;8.972;2023-01-10T14:14:32;40.94;36.91;66.30;;
45109;Laerm;30447;48.742;8.972;2023-01-10T14:17:35;40.09;36.91;45.17;;
45109;Laerm;30447;48.742;8.972;2023-01-10T14:22:39;40.41;37.32;43.68;;
45109;Laerm;30447;48.742;8.972;2023-01-10T14:25:19;40.50;37.52;45.86;;
45109;Laerm;30447;48.742;8.972;2023-01-10T14:27:50;41.39;37.32;55.72;;
45109;Laerm;30447;48.742;8.972;2023-01-10T14:30:37;40.59;36.69;55.24;;
45109;Laerm;30447;48.742;8.972;2023-01-10T14:33:19;40.51;37.32;48.02;;
45109;Laerm;30447;48.742;8.972;2023-01-10T14:35:56;39.89;36.45;44.97;;
45109;Laerm;30447;48.742;8.972;2023-01-10T14:38:34;41.70;36.69;52.80;;
45109;Laerm;30447;48.742;8.972;2023-01-10T14:41:12;41.58;37.32;61.86;;
45109;Laerm;30447;48.742;8.972;2023-01-10T14:43:52;40.82;37.52;55.19;;
45109;Laerm;30447;48.742;8.972;2023-01-10T14:46:30;41.87;38.05;50.92;;
45109;Laerm;30447;48.742;8.972;2023-01-10T14:48:58;44.55;37.32;59.58;;
45109;Laerm;30447;48.742;8.972;2023-01-10T14:51:30;40.56;37.52;45.98;;
45109;Laerm;30447;48.742;8.972;2023-01-10T14:54:10;65.43;37.52;83.27;;
45109;Laerm;30447;48.742;8.972;2023-01-10T14:56:41;40.39;37.32;52.15;;
45109;Laerm;30447;48.742;8.972;2023-01-10T15:01:52;40.59;37.12;45.39;;
45109;Laerm;30447;48.742;8.972;2023-01-10T15:04:25;42.22;38.52;57.89;;
45109;Laerm;30447;48.742;8.972;2023-01-10T15:07:14;40.21;36.91;44.11;;
45109;Laerm;30447;48.742;8.972;2023-01-10T15:09:49;39.84;37.12;51.23;;
45109;Laerm;30447;48.742;8.972;2023-01-10T15:12:19;40.05;37.12;50.04;;
45109;Laerm;30447;48.742;8.972;2023-01-10T15:14:57;40.35;37.32;45.66;;
45109;Laerm;30447;48.742;8.972;2023-01-10T15:17:26;40.28;36.91;44.43;;
45109;Laerm;30447;48.742;8.972;2023-01-10T15:19:54;40.69;36.69;56.90;;
45109;Laerm;30447;48.742;8.972;2023-01-10T15:22:34;42.65;36.20;63.89;;
45109;Laerm;30447;48.742;8.972;2023-01-10T15:27:45;40.38;36.69;59.05;;
45109;Laerm;30447;48.742;8.972;2023-01-10T15:30:30;40.88;37.12;46.18;;
45109;Laerm;30447;48.742;8.972;2023-01-10T15:33:10;40.10;37.32;45.11;;
45109;Laerm;30447;48.742;8.972;2023-01-10T15:35:38;43.98;37.12;62.85;;
45109;Laerm;30447;48.742;8.972;2023-01-10T15:38:15;40.33;36.91;52.94;;
45109;Laerm;30447;48.742;8.972;2023-01-10T15:40:43;40.28;35.94;48.16;;
45109;Laerm;30447;48.742;8.972;2023-01-10T15:45:44;40.53;37.32;47.02;;
45109;Laerm;30447;48.742;8.972;2023-01-10T15:51:46;40.66;37.32;45.75;;
45109;Laerm;30447;48.742;8.972;2023-01-10T15:57:06;40.89;37.32;51.82;;
45109;Laerm;30447;48.742;8.972;2023-01-10T15:59:47;40.54;37.52;46.62;;
45109;Laerm;30447;48.742;8.972;2023-01-10T16:02:30;41.13;37.70;52.17;;